Negotin, Serbia
Current Conditions -  °F | °C
As of 2:00 AM on Saturday 29 Nov 2014 (Local Time) from LRCV Reporting Station
Clear Clear  
Wind Chill: 32°   Ceiling: Unl
Heat Index: 32°   Visibility: 4mi
Dew Point: 28°   Wind: 2mph
Humidity: 87%   Direction: 90°E
Pressure: 30.24"   Gusts: NA
Location:  44.23°N, 22.53°E
Report Text: LRCV 290000Z 09002KT 6000 NSC M00/M02 Q1024
Loading
Personal Weather Stations






























Interactive Weather Map New forecast layout! Learn more

10-Day Weather Forecast

Advertisements
Track Severe Weather on mobile